Eko 4 — SVAR8 — position and weather

sailwx.info

Track history (hours):
 
Tides and Currents Weather Stations Pressure Air Temp Water Temp Dewpoint Dewpoint Depression Visibility Wind Speed Wind Dir Waves Ship Positions

Eko 4

Last reported at 2017-Oct-18 16:28 UTC. Time now 2017-Oct-18 16:56 UTC.
Position N 38°02' E 023°36'.

Length 88 m; draft 5 m.

Type: Ship (hazmat cat A). MMSI: 240912000.

Date/timePositionNaut miles runAvg speedWind from/ knotsBaromVisibWave heightAir tempDewpointWater temp
2017-Oct-18 16:28N 38°02' E 023°36'1 1.4
2017-Oct-18 16:00N 38°01' E 023°35'4 7.4
2017-Oct-18 15:31N 38°02' E 023°31'0 0.1
2017-Oct-18 11:31N 38°02' E 023°30'0 1.7
2017-Oct-18 11:30N 38°02' E 023°30'1 2.6
2017-Oct-18 10:57N 38°02' E 023°32'0 0.0
2017-Oct-18 10:30N 38°02' E 023°32'0 0.0
2017-Oct-18 09:51N 38°02' E 023°32'0 0.0
2017-Oct-18 09:30N 38°02' E 023°32'0 0.0
2017-Oct-18 09:00N 38°02' E 023°32'0 0.0
2017-Oct-18 08:30N 38°02' E 023°32'0 0.0
2017-Oct-18 07:57N 38°02' E 023°32'0 0.0
2017-Oct-18 07:30N 38°02' E 023°32'0 0.0
2017-Oct-18 07:00N 38°02' E 023°32'0 0.0
2017-Oct-18 06:30N 38°02' E 023°32'0 0.0
2017-Oct-18 06:00N 38°02' E 023°32'1 1.5
2017-Oct-18 05:30N 38°01' E 023°32'4 8.0
2017-Oct-18 05:01N 37°57' E 023°34'2 4.5
2017-Oct-18 04:30N 37°56' E 023°36'2 4.3
2017-Oct-18 04:00N 37°55' E 023°33'0 0.0
2017-Oct-18 03:30N 37°55' E 023°33'0 0.0
2017-Oct-18 03:00N 37°55' E 023°33'0 0.0
2017-Oct-18 02:30N 37°55' E 023°33'0 0.0
2017-Oct-18 02:00N 37°55' E 023°33'0 0.0
2017-Oct-18 01:30N 37°55' E 023°33'0 0.0
2017-Oct-18 01:00N 37°55' E 023°33'0 0.0
2017-Oct-18 00:30N 37°55' E 023°33'0 0.0
2017-Oct-18 00:00N 37°55' E 023°33'0 0.0
2017-Oct-17 23:30N 37°55' E 023°33'0 0.0
2017-Oct-17 23:00N 37°55' E 023°33'0 0.0
2017-Oct-17 22:30N 37°55' E 023°33'0 0.0
2017-Oct-17 22:00N 37°55' E 023°33'0 0.0
2017-Oct-17 21:30N 37°55' E 023°33'0 0.1
2017-Oct-17 20:57N 37°55' E 023°33'0 0.0
2017-Oct-17 20:30N 37°55' E 023°33'0 0.0
2017-Oct-17 20:00N 37°55' E 023°33'0 0.0
2017-Oct-17 19:30N 37°55' E 023°33'0 0.0
2017-Oct-17 19:00N 37°55' E 023°33'0 0.0
2017-Oct-17 18:30N 37°55' E 023°33'0 0.2
2017-Oct-17 18:00N 37°55' E 023°33'2 3.2
2017-Oct-17 17:30N 37°54' E 023°34'4 8.4
2017-Oct-17 17:00N 37°51' E 023°38'5 9.2
2017-Oct-17 16:30N 37°47' E 023°41'5 9.6
2017-Oct-17 16:00N 37°43' E 023°44'  
2017-Oct-14 21:34N 37°39' E 023°49'1 8.9
2017-Oct-14 21:29N 37°39' E 023°48'4 8.8
2017-Oct-14 21:01N 37°40' E 023°43'5 9.8
2017-Oct-14 20:30N 37°44' E 023°40'5 9.6
2017-Oct-14 20:01N 37°49' E 023°37'5 9.7
2017-Oct-14 19:31N 37°53' E 023°35'2 4.8
2017-Oct-14 19:00N 37°55' E 023°34'0 0.0
2017-Oct-14 18:30N 37°55' E 023°34'0 0.0
2017-Oct-14 18:00N 37°55' E 023°34'0 0.1
2017-Oct-14 17:30N 37°55' E 023°34'0 0.1
2017-Oct-14 17:00N 37°55' E 023°34'2 3.6
2017-Oct-14 16:31N 37°54' E 023°34'4 8.5
2017-Oct-14 16:01N 37°50' E 023°31'5 9.2
2017-Oct-14 15:31N 37°51' E 023°25'5 9.2
2017-Oct-14 15:01N 37°52' E 023°19'5 9.4
2017-Oct-14 14:30N 37°53' E 023°14'5 9.6
2017-Oct-14 14:01N 37°54' E 023°08'2 4.2
2017-Oct-14 13:29N 37°55' E 023°05'0 0.0
2017-Oct-14 12:59N 37°55' E 023°05'0 0.0
2017-Oct-14 12:29N 37°55' E 023°05'0 0.0
2017-Oct-14 11:56N 37°55' E 023°05'0 0.0
2017-Oct-14 11:29N 37°55' E 023°05'0 0.0
2017-Oct-14 10:59N 37°55' E 023°05'0 0.0
2017-Oct-14 10:29N 37°55' E 023°05'0 0.0
2017-Oct-14 09:59N 37°55' E 023°05'0 0.0
2017-Oct-14 09:29N 37°55' E 023°05'0 0.0
2017-Oct-14 08:59N 37°55' E 023°05'0 0.0
2017-Oct-14 08:29N 37°55' E 023°05'0 0.0
2017-Oct-14 07:59N 37°55' E 023°05'0 0.0
2017-Oct-14 07:29N 37°55' E 023°05'0 0.0
2017-Oct-14 06:59N 37°55' E 023°05'0 0.0
2017-Oct-14 06:29N 37°55' E 023°05'0 0.0
2017-Oct-14 05:59N 37°55' E 023°05'0 0.0
2017-Oct-14 05:29N 37°55' E 023°05'0 0.0
2017-Oct-14 04:59N 37°55' E 023°05'0 0.0
2017-Oct-14 04:29N 37°55' E 023°05'0 0.0
2017-Oct-14 03:59N 37°55' E 023°05'0 0.0
2017-Oct-14 03:29N 37°55' E 023°05'0 0.0
2017-Oct-14 02:59N 37°55' E 023°05'0 0.0
2017-Oct-14 02:29N 37°55' E 023°05'0 0.0
2017-Oct-14 01:59N 37°55' E 023°05'0 0.0
2017-Oct-14 01:29N 37°55' E 023°05'0 0.0
2017-Oct-14 00:59N 37°55' E 023°05'0 0.0
2017-Oct-14 00:29N 37°55' E 023°05'0 0.0
2017-Oct-13 23:59N 37°55' E 023°05'0 0.0
2017-Oct-13 23:29N 37°55' E 023°05'0 0.0
2017-Oct-13 22:59N 37°55' E 023°05'0 0.0
2017-Oct-13 22:29N 37°55' E 023°05'0 0.0
2017-Oct-13 21:59N 37°55' E 023°05'0 0.0
2017-Oct-13 21:29N 37°55' E 023°05'0 0.0
2017-Oct-13 20:59N 37°55' E 023°05'0 0.0
2017-Oct-13 20:29N 37°55' E 023°05'0 0.0
2017-Oct-13 19:59N 37°55' E 023°05'0 0.0
2017-Oct-13 19:29N 37°55' E 023°05'0 0.0
2017-Oct-13 18:59N 37°55' E 023°05'0 0.0
2017-Oct-13 18:29N 37°55' E 023°05'0 0.0
2017-Oct-13 17:59N 37°55' E 023°05'0 0.0
2017-Oct-13 17:29N 37°55' E 023°05'0 0.0
2017-Oct-13 16:59N 37°55' E 023°05'0 0.0
2017-Oct-13 16:29N 37°55' E 023°05'0 0.0
2017-Oct-13 15:59N 37°55' E 023°05'0 0.0
2017-Oct-13 15:29N 37°55' E 023°05'0 0.0
2017-Oct-13 14:59N 37°55' E 023°05'0 0.0
2017-Oct-13 14:29N 37°55' E 023°05'1 1.4
2017-Oct-13 14:00N 37°54' E 023°06'0 0.8
2017-Oct-13 13:30N 37°55' E 023°06'0 0.0
2017-Oct-13 13:00N 37°55' E 023°06'0 0.0
2017-Oct-13 12:30N 37°55' E 023°06'0 0.0
2017-Oct-13 12:00N 37°55' E 023°06'0 0.0
2017-Oct-13 11:30N 37°55' E 023°06'0 0.1
2017-Oct-13 11:00N 37°55' E 023°06'0 0.1
2017-Oct-13 10:30N 37°55' E 023°06'0 0.1
2017-Oct-13 10:00N 37°55' E 023°06'0 0.1
2017-Oct-13 09:30N 37°55' E 023°06'0 0.0
2017-Oct-13 09:00N 37°55' E 023°06'0 0.0
2017-Oct-13 08:30N 37°55' E 023°06'0 0.0
2017-Oct-13 08:00N 37°55' E 023°06'0 0.0
2017-Oct-13 07:30N 37°55' E 023°06'0 0.0
2017-Oct-13 07:00N 37°55' E 023°06'0 0.0
2017-Oct-13 06:30N 37°55' E 023°06'0 0.0
2017-Oct-13 06:00N 37°55' E 023°06'0 0.0
2017-Oct-13 05:30N 37°55' E 023°06'0 0.0
2017-Oct-13 05:00N 37°55' E 023°06'0 0.0
2017-Oct-13 04:30N 37°55' E 023°06'0 0.0
2017-Oct-13 04:00N 37°55' E 023°06'0 0.0
2017-Oct-13 03:30N 37°55' E 023°06'0 0.0
2017-Oct-13 03:00N 37°55' E 023°06'0 0.1
2017-Oct-13 02:30N 37°55' E 023°06'0 0.1
2017-Oct-13 02:00N 37°55' E 023°06'0 0.0
2017-Oct-13 01:30N 37°55' E 023°06'0 0.0
2017-Oct-13 01:00N 37°55' E 023°06'0 0.0
2017-Oct-13 00:30N 37°55' E 023°06'0 0.0
2017-Oct-13 00:00N 37°55' E 023°06'0 0.0
2017-Oct-12 23:30N 37°55' E 023°06'0 0.1
2017-Oct-12 23:00N 37°55' E 023°06'2 4.7
2017-Oct-12 22:30N 37°54' E 023°09'5 9.4
2017-Oct-12 22:01N 37°53' E 023°14'5 9.7
2017-Oct-12 21:30N 37°51' E 023°20'5 9.8
2017-Oct-12 21:00N 37°50' E 023°26'5 9.8
2017-Oct-12 20:30N 37°49' E 023°32'510.0
2017-Oct-12 20:00N 37°50' E 023°39'5 9.7
2017-Oct-12 19:30N 37°46' E 023°42'5 9.7
2017-Oct-12 19:00N 37°42' E 023°44'5 9.5
2017-Oct-12 18:29N 37°39' E 023°50'  
2017-Oct-09 10:25N 37°38' E 023°47'4 9.5
2017-Oct-09 10:00N 37°41' E 023°43'5 9.8
2017-Oct-09 09:30N 37°45' E 023°40'5 9.7
2017-Oct-09 09:00N 37°49' E 023°37'5 9.7
2017-Oct-09 08:30N 37°54' E 023°37'4 8.3
2017-Oct-09 08:00N 37°57' E 023°33'4 8.6
2017-Oct-09 07:30N 38°02' E 023°32'0 0.3
2017-Oct-09 06:56N 38°02' E 023°32'0 0.0
2017-Oct-09 06:26N 38°02' E 023°32'0 0.1
2017-Oct-09 05:53N 38°02' E 023°32'0 0.0
2017-Oct-09 05:29N 38°02' E 023°32'0 0.0
2017-Oct-09 04:59N 38°02' E 023°32'0 0.0
2017-Oct-09 04:29N 38°02' E 023°32'0 0.0
2017-Oct-09 03:59N 38°02' E 023°32'0 0.0
2017-Oct-09 03:26N 38°02' E 023°32'0 0.1
2017-Oct-09 02:59N 38°02' E 023°32'0 0.0
2017-Oct-09 02:29N 38°02' E 023°32'0 0.1
2017-Oct-09 01:59N 38°02' E 023°32'0 0.2
2017-Oct-09 01:30N 38°02' E 023°32'1 2.7
2017-Oct-09 01:00N 38°02' E 023°30'0 0.2
2017-Oct-09 00:28N 38°02' E 023°30'0 0.0
2017-Oct-08 23:55N 38°02' E 023°30'0 0.0
2017-Oct-08 23:28N 38°02' E 023°30'0 0.0
2017-Oct-08 22:58N 38°02' E 023°30'0 0.0
2017-Oct-08 22:25N 38°02' E 023°30'0 0.0
2017-Oct-08 21:58N 38°02' E 023°30'0 0.0
2017-Oct-08 21:28N 38°02' E 023°30'0 0.0
2017-Oct-08 20:58N 38°02' E 023°30'0 0.0
2017-Oct-08 20:25N 38°02' E 023°30'0 0.0
2017-Oct-08 19:55N 38°02' E 023°30'0 0.0
2017-Oct-08 19:28N 38°02' E 023°30'0 0.0
2017-Oct-08 18:58N 38°02' E 023°30'0 0.0
2017-Oct-08 18:28N 38°02' E 023°30'0 0.0
2017-Oct-08 17:58N 38°02' E 023°30'0 0.0
2017-Oct-08 17:30N 38°02' E 023°30'1 2.1
2017-Oct-08 17:00N 38°01' E 023°31'3 6.7
2017-Oct-08 16:30N 38°02' E 023°35'  
Track history (hours):
 
Tides and Currents Weather Stations Pressure Air Temp Water Temp Dewpoint Dewpoint Depression Visibility Wind Speed Wind Dir Waves Ship Positions

Eko 4

Last reported at 2017-Oct-18 16:28 UTC. Time now 2017-Oct-18 16:56 UTC.
Position N 38°02' E 023°36'.

Length 88 m; draft 5 m.

Type: Ship (hazmat cat A). MMSI: 240912000.

Date/timePositionNaut miles runAvg speedWind from/ knotsBaromVisibWave heightAir tempDewpointWater temp
2017-Oct-18 16:28N 38°02' E 023°36'1 1.4
2017-Oct-18 16:00N 38°01' E 023°35'4 7.4
2017-Oct-18 15:31N 38°02' E 023°31'0 0.1
2017-Oct-18 11:31N 38°02' E 023°30'0 1.7
2017-Oct-18 11:30N 38°02' E 023°30'1 2.6
2017-Oct-18 10:57N 38°02' E 023°32'0 0.0
2017-Oct-18 10:30N 38°02' E 023°32'0 0.0
2017-Oct-18 09:51N 38°02' E 023°32'0 0.0
2017-Oct-18 09:30N 38°02' E 023°32'0 0.0
2017-Oct-18 09:00N 38°02' E 023°32'0 0.0
2017-Oct-18 08:30N 38°02' E 023°32'0 0.0
2017-Oct-18 07:57N 38°02' E 023°32'0 0.0
2017-Oct-18 07:30N 38°02' E 023°32'0 0.0
2017-Oct-18 07:00N 38°02' E 023°32'0 0.0
2017-Oct-18 06:30N 38°02' E 023°32'0 0.0
2017-Oct-18 06:00N 38°02' E 023°32'1 1.5
2017-Oct-18 05:30N 38°01' E 023°32'4 8.0
2017-Oct-18 05:01N 37°57' E 023°34'2 4.5
2017-Oct-18 04:30N 37°56' E 023°36'2 4.3
2017-Oct-18 04:00N 37°55' E 023°33'0 0.0
2017-Oct-18 03:30N 37°55' E 023°33'0 0.0
2017-Oct-18 03:00N 37°55' E 023°33'0 0.0
2017-Oct-18 02:30N 37°55' E 023°33'0 0.0
2017-Oct-18 02:00N 37°55' E 023°33'0 0.0
2017-Oct-18 01:30N 37°55' E 023°33'0 0.0
2017-Oct-18 01:00N 37°55' E 023°33'0 0.0
2017-Oct-18 00:30N 37°55' E 023°33'0 0.0
2017-Oct-18 00:00N 37°55' E 023°33'0 0.0
2017-Oct-17 23:30N 37°55' E 023°33'0 0.0
2017-Oct-17 23:00N 37°55' E 023°33'0 0.0
2017-Oct-17 22:30N 37°55' E 023°33'0 0.0
2017-Oct-17 22:00N 37°55' E 023°33'0 0.0
2017-Oct-17 21:30N 37°55' E 023°33'0 0.1
2017-Oct-17 20:57N 37°55' E 023°33'0 0.0
2017-Oct-17 20:30N 37°55' E 023°33'0 0.0
2017-Oct-17 20:00N 37°55' E 023°33'0 0.0
2017-Oct-17 19:30N 37°55' E 023°33'0 0.0
2017-Oct-17 19:00N 37°55' E 023°33'0 0.0
2017-Oct-17 18:30N 37°55' E 023°33'0 0.2
2017-Oct-17 18:00N 37°55' E 023°33'2 3.2
2017-Oct-17 17:30N 37°54' E 023°34'4 8.4
2017-Oct-17 17:00N 37°51' E 023°38'5 9.2
2017-Oct-17 16:30N 37°47' E 023°41'5 9.6
2017-Oct-17 16:00N 37°43' E 023°44'  
2017-Oct-14 21:34N 37°39' E 023°49'1 8.9
2017-Oct-14 21:29N 37°39' E 023°48'4 8.8
2017-Oct-14 21:01N 37°40' E 023°43'5 9.8
2017-Oct-14 20:30N 37°44' E 023°40'5 9.6
2017-Oct-14 20:01N 37°49' E 023°37'5 9.7
2017-Oct-14 19:31N 37°53' E 023°35'2 4.8
2017-Oct-14 19:00N 37°55' E 023°34'0 0.0
2017-Oct-14 18:30N 37°55' E 023°34'0 0.0
2017-Oct-14 18:00N 37°55' E 023°34'0 0.1
2017-Oct-14 17:30N 37°55' E 023°34'0 0.1
2017-Oct-14 17:00N 37°55' E 023°34'2 3.6
2017-Oct-14 16:31N 37°54' E 023°34'4 8.5
2017-Oct-14 16:01N 37°50' E 023°31'5 9.2
2017-Oct-14 15:31N 37°51' E 023°25'5 9.2
2017-Oct-14 15:01N 37°52' E 023°19'5 9.4
2017-Oct-14 14:30N 37°53' E 023°14'5 9.6
2017-Oct-14 14:01N 37°54' E 023°08'2 4.2
2017-Oct-14 13:29N 37°55' E 023°05'0 0.0
2017-Oct-14 12:59N 37°55' E 023°05'0 0.0
2017-Oct-14 12:29N 37°55' E 023°05'0 0.0
2017-Oct-14 11:56N 37°55' E 023°05'0 0.0
2017-Oct-14 11:29N 37°55' E 023°05'0 0.0
2017-Oct-14 10:59N 37°55' E 023°05'0 0.0
2017-Oct-14 10:29N 37°55' E 023°05'0 0.0
2017-Oct-14 09:59N 37°55' E 023°05'0 0.0
2017-Oct-14 09:29N 37°55' E 023°05'0 0.0
2017-Oct-14 08:59N 37°55' E 023°05'0 0.0
2017-Oct-14 08:29N 37°55' E 023°05'0 0.0
2017-Oct-14 07:59N 37°55' E 023°05'0 0.0
2017-Oct-14 07:29N 37°55' E 023°05'0 0.0
2017-Oct-14 06:59N 37°55' E 023°05'0 0.0
2017-Oct-14 06:29N 37°55' E 023°05'0 0.0
2017-Oct-14 05:59N 37°55' E 023°05'0 0.0
2017-Oct-14 05:29N 37°55' E 023°05'0 0.0
2017-Oct-14 04:59N 37°55' E 023°05'0 0.0
2017-Oct-14 04:29N 37°55' E 023°05'0 0.0
2017-Oct-14 03:59N 37°55' E 023°05'0 0.0
2017-Oct-14 03:29N 37°55' E 023°05'0 0.0
2017-Oct-14 02:59N 37°55' E 023°05'0 0.0
2017-Oct-14 02:29N 37°55' E 023°05'0 0.0
2017-Oct-14 01:59N 37°55' E 023°05'0 0.0
2017-Oct-14 01:29N 37°55' E 023°05'0 0.0
2017-Oct-14 00:59N 37°55' E 023°05'0 0.0
2017-Oct-14 00:29N 37°55' E 023°05'0 0.0
2017-Oct-13 23:59N 37°55' E 023°05'0 0.0
2017-Oct-13 23:29N 37°55' E 023°05'0 0.0
2017-Oct-13 22:59N 37°55' E 023°05'0 0.0
2017-Oct-13 22:29N 37°55' E 023°05'0 0.0
2017-Oct-13 21:59N 37°55' E 023°05'0 0.0
2017-Oct-13 21:29N 37°55' E 023°05'0 0.0
2017-Oct-13 20:59N 37°55' E 023°05'0 0.0
2017-Oct-13 20:29N 37°55' E 023°05'0 0.0
2017-Oct-13 19:59N 37°55' E 023°05'0 0.0
2017-Oct-13 19:29N 37°55' E 023°05'0 0.0
2017-Oct-13 18:59N 37°55' E 023°05'0 0.0
2017-Oct-13 18:29N 37°55' E 023°05'0 0.0
2017-Oct-13 17:59N 37°55' E 023°05'0 0.0
2017-Oct-13 17:29N 37°55' E 023°05'0 0.0
2017-Oct-13 16:59N 37°55' E 023°05'0 0.0
2017-Oct-13 16:29N 37°55' E 023°05'0 0.0
2017-Oct-13 15:59N 37°55' E 023°05'0 0.0
2017-Oct-13 15:29N 37°55' E 023°05'0 0.0
2017-Oct-13 14:59N 37°55' E 023°05'0 0.0
2017-Oct-13 14:29N 37°55' E 023°05'1 1.4
2017-Oct-13 14:00N 37°54' E 023°06'0 0.8
2017-Oct-13 13:30N 37°55' E 023°06'0 0.0
2017-Oct-13 13:00N 37°55' E 023°06'0 0.0
2017-Oct-13 12:30N 37°55' E 023°06'0 0.0
2017-Oct-13 12:00N 37°55' E 023°06'0 0.0
2017-Oct-13 11:30N 37°55' E 023°06'0 0.1
2017-Oct-13 11:00N 37°55' E 023°06'0 0.1
2017-Oct-13 10:30N 37°55' E 023°06'0 0.1
2017-Oct-13 10:00N 37°55' E 023°06'0 0.1
2017-Oct-13 09:30N 37°55' E 023°06'0 0.0
2017-Oct-13 09:00N 37°55' E 023°06'0 0.0
2017-Oct-13 08:30N 37°55' E 023°06'0 0.0
2017-Oct-13 08:00N 37°55' E 023°06'0 0.0
2017-Oct-13 07:30N 37°55' E 023°06'0 0.0
2017-Oct-13 07:00N 37°55' E 023°06'0 0.0
2017-Oct-13 06:30N 37°55' E 023°06'0 0.0
2017-Oct-13 06:00N 37°55' E 023°06'0 0.0
2017-Oct-13 05:30N 37°55' E 023°06'0 0.0
2017-Oct-13 05:00N 37°55' E 023°06'0 0.0
2017-Oct-13 04:30N 37°55' E 023°06'0 0.0
2017-Oct-13 04:00N 37°55' E 023°06'0 0.0
2017-Oct-13 03:30N 37°55' E 023°06'0 0.0
2017-Oct-13 03:00N 37°55' E 023°06'0 0.1
2017-Oct-13 02:30N 37°55' E 023°06'0 0.1
2017-Oct-13 02:00N 37°55' E 023°06'0 0.0
2017-Oct-13 01:30N 37°55' E 023°06'0 0.0
2017-Oct-13 01:00N 37°55' E 023°06'0 0.0
2017-Oct-13 00:30N 37°55' E 023°06'0 0.0
2017-Oct-13 00:00N 37°55' E 023°06'0 0.0
2017-Oct-12 23:30N 37°55' E 023°06'0 0.1
2017-Oct-12 23:00N 37°55' E 023°06'2 4.7
2017-Oct-12 22:30N 37°54' E 023°09'5 9.4
2017-Oct-12 22:01N 37°53' E 023°14'5 9.7
2017-Oct-12 21:30N 37°51' E 023°20'5 9.8
2017-Oct-12 21:00N 37°50' E 023°26'5 9.8
2017-Oct-12 20:30N 37°49' E 023°32'510.0
2017-Oct-12 20:00N 37°50' E 023°39'5 9.7
2017-Oct-12 19:30N 37°46' E 023°42'5 9.7
2017-Oct-12 19:00N 37°42' E 023°44'5 9.5
2017-Oct-12 18:29N 37°39' E 023°50'  
2017-Oct-09 10:25N 37°38' E 023°47'4 9.5
2017-Oct-09 10:00N 37°41' E 023°43'5 9.8
2017-Oct-09 09:30N 37°45' E 023°40'5 9.7
2017-Oct-09 09:00N 37°49' E 023°37'5 9.7
2017-Oct-09 08:30N 37°54' E 023°37'4 8.3
2017-Oct-09 08:00N 37°57' E 023°33'4 8.6
2017-Oct-09 07:30N 38°02' E 023°32'0 0.3
2017-Oct-09 06:56N 38°02' E 023°32'0 0.0
2017-Oct-09 06:26N 38°02' E 023°32'0 0.1
2017-Oct-09 05:53N 38°02' E 023°32'0 0.0
2017-Oct-09 05:29N 38°02' E 023°32'0 0.0
2017-Oct-09 04:59N 38°02' E 023°32'0 0.0
2017-Oct-09 04:29N 38°02' E 023°32'0 0.0
2017-Oct-09 03:59N 38°02' E 023°32'0 0.0
2017-Oct-09 03:26N 38°02' E 023°32'0 0.1
2017-Oct-09 02:59N 38°02' E 023°32'0 0.0
2017-Oct-09 02:29N 38°02' E 023°32'0 0.1
2017-Oct-09 01:59N 38°02' E 023°32'0 0.2
2017-Oct-09 01:30N 38°02' E 023°32'1 2.7
2017-Oct-09 01:00N 38°02' E 023°30'0 0.2
2017-Oct-09 00:28N 38°02' E 023°30'0 0.0
2017-Oct-08 23:55N 38°02' E 023°30'0 0.0
2017-Oct-08 23:28N 38°02' E 023°30'0 0.0
2017-Oct-08 22:58N 38°02' E 023°30'0 0.0
2017-Oct-08 22:25N 38°02' E 023°30'0 0.0
2017-Oct-08 21:58N 38°02' E 023°30'0 0.0
2017-Oct-08 21:28N 38°02' E 023°30'0 0.0
2017-Oct-08 20:58N 38°02' E 023°30'0 0.0
2017-Oct-08 20:25N 38°02' E 023°30'0 0.0
2017-Oct-08 19:55N 38°02' E 023°30'0 0.0
2017-Oct-08 19:28N 38°02' E 023°30'0 0.0
2017-Oct-08 18:58N 38°02' E 023°30'0 0.0
2017-Oct-08 18:28N 38°02' E 023°30'0 0.0
2017-Oct-08 17:58N 38°02' E 023°30'0 0.0
2017-Oct-08 17:30N 38°02' E 023°30'1 2.1
2017-Oct-08 17:00N 38°01' E 023°31'3 6.7
2017-Oct-08 16:30N 38°02' E 023°35'  

Dump ship's entire track history